Disclaimer

Please do not use the information listed here in-flight or in-navigation, as they are not provided to us by the airports but are provided by volunteers, so they might be outdated.

Search


Regions


Airport information page

No radio frequency information is available.

Airport informations:
Latitude: 55° 58' 23.62" N
Longitude: 021° 05' 37.88" E
Elevation: 33 feet - 10 meters
Operating hours: Remarks
Operating agency: Civil government, landing fees and diplomatic clearance may be required
Timezone: UTC+2(+3DT) - Last Sunday in March to last Sunday in October
Fuel: Jet A1, without icing nhibitor.

100/130 MIL Spec, low lead, aviation gasoline (BLUE)

Runway information:
01/19 - 6562 x 131 feet< - >2000 x 40 meters

Recent METARs:
EYPA 181850Z 03008KT 9999 BKN028 BKN053 04/02 Q1030 R01/1///95
EYPA 181920Z 04008KT 9999 -SHRA BKN018CB BKN037 04/02 Q1030 R01/1///95
EYPA 181950Z 04008KT 9999 SCT017 03/01 Q1030 R01/1///95

Airport on the map: